aviador You're here:

KMHL Decoded Metar

in
Report Time2017-07-21 02:35:00
UTC Time2017-07-21 02:54:18
Flight Rules vfr VFR
Wind190° at 04 kt
W.Decomp.*RWY 18: 3.9 kt HW 0.7 kt RCW
RWY 27: 0.7 kt HW 3.9 kt LCW
W.Rank190° ranks 4
Current wind is below 190° avg. (7.7)
Visibility9999 m
Phenomena:N/A
Clouds:N/A
Expected CloudBase > 1,600 ft AGL from Temp-Dew spread
CeilingNone
Temp30°C
Dew Point26°C (79% RH)
Heat Index37.4°C
QNH1015 hPa
Raw Report
KMHL 210235Z AUTO 19004KT 10SM CLR 30/26 A2997 RMK AO2=

Extra information for KMHL:More info

Social comments